Time;durP1;ratioP1;P1;durP2;ratioP2;P2;SDS_P1;SDS_P2;PMS_P1;PMS_P2;Temp;Humidity;BMP_temperature;BMP_pressure;BME280_temperature;BME280_humidity;BME280_pressure;Samples;Min_cycle;Max_cycle;Signal;HPM_P1;HPM_P2
2023/11/27 00:00:27;;;;;;;2.67;1.40;;;;;;;-2.12;59.05;94377.28;5112057;28;20016;-67
2023/11/27 00:02:52;;;;;;;2.67;1.65;;;;;;;-2.16;58.87;94393.59;5096408;28;20382;-67
2023/11/27 00:05:18;;;;;;;2.03;1.30;;;;;;;-2.17;58.31;94384.28;5096467;28;20114;-67
2023/11/27 00:07:43;;;;;;;2.50;1.23;;;;;;;-2.17;59.01;94390.22;5113591;28;20560;-67
2023/11/27 00:10:09;;;;;;;2.70;1.42;;;;;;;-2.25;59.19;94367.63;5113972;28;20023;-67
2023/11/27 00:12:34;;;;;;;1.67;1.17;;;;;;;-2.20;59.27;94390.34;5113541;28;20028;-67
2023/11/27 00:15:00;;;;;;;1.85;1.13;;;;;;;-2.12;58.33;94398.47;5114552;28;20081;-67
2023/11/27 00:17:25;;;;;;;1.98;1.20;;;;;;;-2.15;58.84;94408.78;5114312;28;20553;-67
2023/11/27 00:19:51;;;;;;;1.70;1.13;;;;;;;-2.25;58.86;94393.06;5114511;28;20151;-67
2023/11/27 00:22:17;;;;;;;4.65;1.13;;;;;;;-2.37;58.03;94393.53;5113092;28;20036;-67
2023/11/27 00:24:42;;;;;;;2.15;1.40;;;;;;;-2.21;58.83;94403.94;5112687;28;20031;-68
2023/11/27 00:27:08;;;;;;;1.88;1.40;;;;;;;-2.20;60.33;94384.41;5096006;28;20040;-67
2023/11/27 00:29:33;;;;;;;1.73;1.10;;;;;;;-2.19;59.83;94403.91;5094232;28;20016;-68
2023/11/27 00:31:59;;;;;;;1.63;1.00;;;;;;;-2.15;58.34;94416.41;5078742;28;20031;-67
2023/11/27 00:34:25;;;;;;;1.83;1.30;;;;;;;-2.21;59.14;94433.66;5114101;28;20028;-67
2023/11/27 00:36:50;;;;;;;2.83;1.80;;;;;;;-2.24;61.06;94432.06;5112961;28;20028;-67
2023/11/27 00:39:15;;;;;;;2.42;1.45;;;;;;;-2.23;60.61;94427.78;5114430;28;20096;-67
2023/11/27 00:41:41;;;;;;;2.28;1.30;;;;;;;-2.14;59.34;94445.28;5129811;27;20047;-67
2023/11/27 00:44:06;;;;;;;2.15;1.40;;;;;;;-2.18;59.54;94433.53;5114300;28;20020;-67
2023/11/27 00:46:33;;;;;;;1.35;0.90;;;;;;;-2.16;59.61;94432.59;5112934;28;20566;-67
2023/11/27 00:48:58;;;;;;;1.23;0.90;;;;;;;-2.19;58.90;94417.44;5113095;28;20023;-68
2023/11/27 00:51:23;;;;;;;1.30;1.00;;;;;;;-2.22;59.44;94416.75;5147337;27;20096;-67
2023/11/27 00:53:49;;;;;;;1.58;1.08;;;;;;;-2.33;57.80;94399.34;5109521;28;20031;-68
2023/11/27 00:56:14;;;;;;;2.53;1.20;;;;;;;-2.44;62.24;94409.94;5109992;27;20032;-67
2023/11/27 00:58:40;;;;;;;2.20;1.45;;;;;;;-2.41;60.84;94436.97;5092654;28;20081;-67
2023/11/27 01:01:06;;;;;;;1.70;1.10;;;;;;;-2.29;60.66;94432.22;5144150;27;20031;-67
2023/11/27 01:03:31;;;;;;;2.25;1.10;;;;;;;-2.25;58.69;94436.31;5112782;28;20042;-67
2023/11/27 01:05:57;;;;;;;2.00;1.20;;;;;;;-2.33;59.75;94424.78;5095887;28;20023;-68
2023/11/27 01:08:24;;;;;;;2.38;1.25;;;;;;;-2.25;59.62;94426.16;5113833;28;20032;-68
2023/11/27 01:10:50;;;;;;;1.50;1.00;;;;;;;-2.20;59.83;94430.22;5078549;28;20031;-67
2023/11/27 01:13:15;;;;;;;1.67;1.10;;;;;;;-2.12;61.33;94440.94;5095650;28;20027;-67
2023/11/27 01:15:41;;;;;;;1.92;1.20;;;;;;;-2.28;61.56;94444.09;5078699;28;20031;-67
2023/11/27 01:18:06;;;;;;;1.30;1.00;;;;;;;-2.19;60.00;94430.16;5078711;28;20067;-67
2023/11/27 01:20:33;;;;;;;2.65;1.13;;;;;;;-2.05;63.52;94450.00;5113771;28;20031;-67
2023/11/27 01:22:58;;;;;;;1.90;1.20;;;;;;;-2.07;61.99;94450.03;5112193;28;20051;-67
2023/11/27 01:25:24;;;;;;;2.65;1.17;;;;;;;-2.06;61.13;94440.72;5112432;28;20023;-67
2023/11/27 01:27:49;;;;;;;2.53;1.42;;;;;;;-2.01;60.35;94446.41;5112454;28;20028;-67
2023/11/27 01:30:17;;;;;;;1.63;1.10;;;;;;;-2.08;59.11;94450.13;5112335;28;20089;-65
2023/11/27 01:32:43;;;;;;;1.58;1.08;;;;;;;-2.27;60.53;94457.63;5095393;28;20042;-67
2023/11/27 01:35:08;;;;;;;1.85;1.25;;;;;;;-2.09;60.07;94450.97;5111573;28;20023;-71
2023/11/27 01:37:34;;;;;;;2.30;1.50;;;;;;;-2.09;60.83;94449.28;5113363;28;20028;-71
2023/11/27 01:39:59;;;;;;;2.55;1.60;;;;;;;-2.17;60.42;94440.28;5128343;27;20039;-67
2023/11/27 01:42:25;;;;;;;1.77;1.17;;;;;;;-2.25;58.45;94435.50;5146434;27;20458;-68
2023/11/27 01:44:50;;;;;;;2.03;1.10;;;;;;;-2.17;58.62;94450.44;5113267;28;20489;-67
2023/11/27 01:47:16;;;;;;;3.55;2.20;;;;;;;-2.22;58.47;94447.28;5112970;28;20063;-67
2023/11/27 01:49:42;;;;;;;0.93;0.80;;;;;;;-2.21;60.06;94448.94;5094918;28;20470;-67
2023/11/27 01:52:07;;;;;;;1.80;1.05;;;;;;;-2.18;60.42;94461.53;5146183;27;20039;-67
2023/11/27 01:54:32;;;;;;;1.65;1.10;;;;;;;-2.11;57.59;94462.97;5128982;27;20024;-67
2023/11/27 01:56:58;;;;;;;1.58;1.00;;;;;;;-2.15;57.36;94448.69;5146165;27;20062;-68
2023/11/27 01:59:23;;;;;;;1.85;0.93;;;;;;;-2.13;58.42;94452.00;5128759;27;20587;-69
2023/11/27 02:01:49;;;;;;;2.08;1.25;;;;;;;-2.16;60.13;94457.22;5146099;27;20073;-69
2023/11/27 02:04:14;;;;;;;2.78;1.50;;;;;;;-2.12;59.42;94463.84;5145853;27;20027;-69
2023/11/27 02:06:40;;;;;;;1.75;1.10;;;;;;;-2.17;58.26;94463.19;5111607;28;20044;-68
2023/11/27 02:09:05;;;;;;;1.90;1.08;;;;;;;-2.15;59.44;94477.50;5111574;28;20505;-69
2023/11/27 02:11:31;;;;;;;3.60;1.60;;;;;;;-2.06;59.55;94464.44;5111316;28;20096;-68
2023/11/27 02:13:56;;;;;;;3.00;1.80;;;;;;;-2.03;59.15;94478.78;5112705;28;20027;-68
2023/11/27 02:16:22;;;;;;;1.75;1.20;;;;;;;-2.21;58.58;94449.75;5110865;28;20066;-67
2023/11/27 02:18:48;;;;;;;2.00;1.20;;;;;;;-2.15;59.21;94479.22;5077500;28;20028;-68
2023/11/27 02:21:13;;;;;;;1.85;1.15;;;;;;;-2.10;60.50;94473.06;5110360;28;20031;-68
2023/11/27 02:23:39;;;;;;;2.53;1.50;;;;;;;-2.04;59.37;94469.44;5112438;28;20020;-68
2023/11/27 02:26:05;;;;;;;2.03;1.20;;;;;;;-1.99;59.83;94472.66;5112329;28;20158;-68
2023/11/27 02:28:30;;;;;;;2.17;1.20;;;;;;;-1.93;60.49;94467.31;5094106;28;20075;-68
2023/11/27 02:30:56;;;;;;;2.08;1.23;;;;;;;-1.90;58.95;94466.38;5111111;28;20062;-68
2023/11/27 02:33:21;;;;;;;1.90;1.10;;;;;;;-1.87;59.41;94459.41;5112231;28;20194;-69
2023/11/27 02:35:48;;;;;;;3.38;0.90;;;;;;;-1.89;59.72;94450.22;5112097;28;20023;-69
2023/11/27 02:38:13;;;;;;;2.20;1.20;;;;;;;-2.00;58.70;94435.38;5112053;28;20038;-68
2023/11/27 02:40:39;;;;;;;3.33;1.40;;;;;;;-2.03;58.51;94454.13;5110969;28;20028;-68
2023/11/27 02:43:04;;;;;;;1.48;1.02;;;;;;;-2.00;57.16;94462.53;5112515;28;20039;-69
2023/11/27 02:45:29;;;;;;;1.58;1.05;;;;;;;-2.08;57.98;94460.28;5110863;28;20039;-68
2023/11/27 02:47:55;;;;;;;1.77;1.20;;;;;;;-1.99;58.28;94477.75;5110754;28;20109;-69
2023/11/27 02:50:22;;;;;;;1.80;1.25;;;;;;;-2.20;59.18;94455.66;5110652;28;20016;-69
2023/11/27 02:52:48;;;;;;;1.80;1.08;;;;;;;-2.12;59.01;94466.38;5110781;28;20110;-68
2023/11/27 02:55:14;;;;;;;2.03;1.10;;;;;;;-2.08;59.59;94462.84;5076759;28;20110;-68
2023/11/27 02:57:39;;;;;;;3.30;1.60;;;;;;;-2.37;60.38;94429.16;5110467;28;20032;-68
2023/11/27 03:00:08;;;;;;;1.40;0.90;;;;;;;-2.07;59.71;94459.41;5093602;28;20030;-68
2023/11/27 03:02:33;;;;;;;1.63;1.10;;;;;;;-2.10;61.41;94460.34;5094184;28;20504;-69
2023/11/27 03:04:59;;;;;;;1.52;1.13;;;;;;;-2.32;61.23;94431.53;5110611;28;20028;-69
2023/11/27 03:07:24;;;;;;;2.28;1.50;;;;;;;-2.16;61.43;94449.59;5110579;28;20031;-67
2023/11/27 03:09:49;;;;;;;4.70;1.85;;;;;;;-1.99;62.64;94469.28;5093549;28;20024;-67
2023/11/27 03:12:15;;;;;;;4.00;1.77;;;;;;;-2.29;63.16;94429.69;5093366;28;20050;-67
2023/11/27 03:14:40;;;;;;;2.85;1.50;;;;;;;-1.95;63.36;94475.91;5109129;28;20027;-68
2023/11/27 03:17:06;;;;;;;1.90;1.13;;;;;;;-2.14;63.54;94460.53;5111060;28;20324;-67
2023/11/27 03:19:31;;;;;;;1.83;1.10;;;;;;;-1.94;64.26;94478.41;5109822;28;20481;-67
2023/11/27 03:21:57;;;;;;;2.88;1.58;;;;;;;-2.00;64.39;94486.28;5110291;28;20553;-67
2023/11/27 03:24:22;;;;;;;2.28;1.10;;;;;;;-2.07;63.11;94483.13;5110802;28;20032;-68
2023/11/27 03:26:48;;;;;;;1.60;1.15;;;;;;;-2.43;63.12;94439.56;5110004;28;20417;-67
2023/11/27 03:29:13;;;;;;;2.72;1.45;;;;;;;-2.01;62.28;94487.16;5111033;28;20035;-67
2023/11/27 03:31:39;;;;;;;1.42;1.05;;;;;;;-1.73;62.18;94489.44;5111381;28;20036;-67
2023/11/27 03:34:04;;;;;;;2.63;1.58;;;;;;;-1.76;60.29;94491.28;5110012;28;20146;-66
2023/11/27 03:36:30;;;;;;;2.30;1.58;;;;;;;-1.83;62.33;94495.81;5109667;28;20089;-66
2023/11/27 03:38:55;;;;;;;2.55;1.58;;;;;;;-1.83;62.20;94495.81;5111196;28;20224;-67
2023/11/27 03:41:21;;;;;;;2.13;1.50;;;;;;;-1.86;62.55;94498.47;5109977;28;20446;-67
2023/11/27 03:43:47;;;;;;;2.72;1.70;;;;;;;-1.68;63.24;94491.81;5127107;28;20102;-66
2023/11/27 03:46:12;;;;;;;2.03;1.25;;;;;;;-1.61;61.13;94495.78;5143950;27;20053;-67
2023/11/27 03:48:38;;;;;;;2.00;1.60;;;;;;;-1.58;62.59;94493.09;5143741;27;20031;-68
2023/11/27 03:51:05;;;;;;;1.92;1.40;;;;;;;-1.74;63.68;94479.31;5127048;28;20027;-66
2023/11/27 03:53:30;;;;;;;1.75;1.17;;;;;;;-1.54;61.83;94489.50;5126369;28;20036;-67
2023/11/27 03:55:55;;;;;;;2.17;1.50;;;;;;;-1.58;60.89;94478.63;5126931;28;20030;-67
2023/11/27 03:58:22;;;;;;;1.80;1.30;;;;;;;-1.36;65.31;94472.66;5110923;28;20039;-67
2023/11/27 04:00:47;;;;;;;1.80;1.20;;;;;;;-1.40;63.43;94473.66;5110534;28;20024;-67
2023/11/27 04:03:12;;;;;;;1.52;1.20;;;;;;;-1.65;64.77;94489.13;5109639;28;20473;-67
2023/11/27 04:05:39;;;;;;;1.95;1.33;;;;;;;-1.78;62.94;94482.88;5109784;28;20024;-66
2023/11/27 04:08:04;;;;;;;4.32;2.67;;;;;;;-1.73;59.16;94491.16;5111118;28;20410;-67
2023/11/27 04:10:30;;;;;;;1.80;1.10;;;;;;;-1.84;58.24;94504.31;5109682;28;20031;-66
2023/11/27 04:12:55;;;;;;;7.78;4.57;;;;;;;-1.78;58.19;94472.69;5126948;28;20047;-67
2023/11/27 04:15:21;;;;;;;8.32;6.13;;;;;;;-1.64;58.96;94475.53;5109362;28;20470;-66
2023/11/27 04:17:46;;;;;;;4.10;2.53;;;;;;;-1.69;57.99;94490.97;5109727;28;20117;-67
2023/11/27 04:20:11;;;;;;;15.55;12.60;;;;;;;-1.69;59.11;94482.50;5110832;28;20485;-67
2023/11/27 04:22:38;;;;;;;2.38;2.13;;;;;;;-1.66;58.98;94503.59;5109084;28;20047;-66
2023/11/27 04:25:04;;;;;;;2.58;1.95;;;;;;;-1.69;58.60;94483.34;5143590;27;20035;-67
2023/11/27 04:27:30;;;;;;;2.53;1.85;;;;;;;-1.68;57.94;94494.34;5109534;28;20032;-67
2023/11/27 04:29:56;;;;;;;2.20;1.67;;;;;;;-1.69;58.99;94495.25;5110583;28;20449;-67
2023/11/27 04:32:22;;;;;;;2.10;1.48;;;;;;;-1.72;58.08;94487.72;5143690;27;20115;-66
2023/11/27 04:34:47;;;;;;;2.97;2.03;;;;;;;-1.48;59.09;94512.19;5143796;27;20473;-66
2023/11/27 04:37:14;;;;;;;3.63;2.75;;;;;;;-1.50;58.33;94513.19;5143831;27;20036;-67
2023/11/27 04:39:42;;;;;;;2.85;2.00;;;;;;;-1.49;58.10;94520.75;5110755;28;20044;-66
2023/11/27 04:42:09;;;;;;;4.07;1.88;;;;;;;-1.48;57.00;94524.94;5143184;27;20069;-67
2023/11/27 04:44:35;;;;;;;2.97;2.10;;;;;;;-1.61;57.68;94505.97;5110211;28;20024;-67
2023/11/27 04:47:00;;;;;;;4.72;3.60;;;;;;;-1.58;57.76;94505.84;5147122;27;20054;-67
2023/11/27 04:49:26;;;;;;;3.40;2.88;;;;;;;-1.46;58.13;94509.59;5130244;27;20036;-67
2023/11/27 04:51:51;;;;;;;2.90;2.40;;;;;;;-1.51;58.48;94524.25;5147416;27;20468;-67
2023/11/27 04:54:17;;;;;;;3.38;2.50;;;;;;;-1.64;58.03;94521.38;5112792;28;20073;-66
2023/11/27 04:56:42;;;;;;;2.50;1.80;;;;;;;-1.59;58.92;94527.09;5114303;28;20496;-66
2023/11/27 04:59:08;;;;;;;1.80;1.50;;;;;;;-1.62;57.61;94540.78;5114167;28;20027;-66
2023/11/27 05:01:34;;;;;;;2.97;1.45;;;;;;;-1.69;58.42;94515.63;5112910;28;20472;-66
2023/11/27 05:03:59;;;;;;;2.45;1.95;;;;;;;-1.66;57.83;94512.97;5130045;27;20035;-66
2023/11/27 05:06:26;;;;;;;2.15;1.60;;;;;;;-1.58;57.26;94533.84;5110239;28;20315;-66
2023/11/27 05:08:52;;;;;;;3.72;1.90;;;;;;;-1.63;57.53;94533.22;5082556;28;20748;-66
2023/11/27 05:11:21;;;;;;;2.38;1.90;;;;;;;-1.55;57.58;94531.19;5106653;28;20028;-66
2023/11/27 05:13:49;;;;;;;2.97;2.22;;;;;;;-1.59;57.18;94555.97;5107785;28;20092;-66
2023/11/27 05:16:15;;;;;;;2.97;1.60;;;;;;;-1.67;56.33;94554.59;5088799;28;20493;-66
2023/11/27 05:18:44;;;;;;;4.05;2.58;;;;;;;-1.64;55.94;94541.75;5090629;28;20027;-66
2023/11/27 05:21:13;;;;;;;1.88;1.50;;;;;;;-1.54;56.40;94555.75;5089381;28;20032;-66
2023/11/27 05:23:41;;;;;;;3.78;2.60;;;;;;;-1.59;56.02;94555.09;5107085;27;20028;-66
2023/11/27 05:26:08;;;;;;;1.80;1.40;;;;;;;-1.65;56.14;94551.09;5107622;28;20043;-66
2023/11/27 05:28:34;;;;;;;2.70;1.65;;;;;;;-1.65;57.05;94557.91;5106867;28;20031;-67
2023/11/27 05:31:00;;;;;;;2.45;1.73;;;;;;;-1.65;56.61;94560.44;5106023;28;20028;-66
2023/11/27 05:33:26;;;;;;;5.18;2.13;;;;;;;-1.73;56.91;94547.19;5109288;28;20057;-66
2023/11/27 05:35:51;;;;;;;3.72;2.55;;;;;;;-1.63;56.59;94563.78;5109584;28;20069;-67
2023/11/27 05:38:17;;;;;;;2.75;1.92;;;;;;;-1.54;57.88;94560.84;5108313;28;20485;-66
2023/11/27 05:40:43;;;;;;;6.22;3.80;;;;;;;-1.64;58.62;94562.13;5107251;28;20032;-67
2023/11/27 05:43:08;;;;;;;16.98;7.90;;;;;;;-1.62;57.62;94581.53;5108354;28;20039;-67
2023/11/27 05:45:34;;;;;;;18.52;8.85;;;;;;;-1.60;57.78;94584.84;5108625;28;20481;-67
2023/11/27 05:48:00;;;;;;;15.73;7.72;;;;;;;-1.62;56.83;94591.72;5091824;28;20428;-67
2023/11/27 05:50:26;;;;;;;10.73;6.28;;;;;;;-1.63;56.22;94591.81;5104204;28;20031;-68
2023/11/27 05:52:52;;;;;;;8.93;4.82;;;;;;;-1.81;57.91;94555.97;5072141;28;20035;-67
2023/11/27 05:55:17;;;;;;;3.80;2.90;;;;;;;-1.65;56.93;94585.94;5106222;28;20046;-67
2023/11/27 05:57:43;;;;;;;3.60;2.60;;;;;;;-1.74;56.49;94566.75;5107230;28;20035;-67
2023/11/27 06:00:09;;;;;;;2.28;1.20;;;;;;;-1.58;57.66;94587.34;5107617;28;20069;-71
2023/11/27 06:02:35;;;;;;;2.83;1.73;;;;;;;-1.65;56.97;94580.84;5122274;27;20071;-68
2023/11/27 06:05:00;;;;;;;10.57;5.78;;;;;;;-1.67;56.87;94586.00;5090332;28;20027;-68
2023/11/27 06:07:25;;;;;;;18.13;8.35;;;;;;;-1.74;56.98;94574.38;5075624;28;20043;-68
2023/11/27 06:09:51;;;;;;;8.13;4.32;;;;;;;-1.62;55.73;94585.81;5108841;28;20023;-68
2023/11/27 06:12:17;;;;;;;3.22;1.90;;;;;;;-1.72;56.28;94597.25;5106805;28;20039;-68
2023/11/27 06:14:42;;;;;;;10.93;5.32;;;;;;;-1.75;56.45;94599.94;5107972;28;20037;-69
2023/11/27 06:17:08;;;;;;;8.07;3.90;;;;;;;-1.75;56.65;94584.66;5107500;28;20032;-68
2023/11/27 06:19:33;;;;;;;14.30;7.53;;;;;;;-1.60;56.72;94589.94;5090284;28;20412;-67
2023/11/27 06:21:59;;;;;;;9.82;4.70;;;;;;;-1.73;55.91;94586.22;5105757;28;20477;-68
2023/11/27 06:24:25;;;;;;;6.80;3.63;;;;;;;-1.87;56.48;94591.84;5107057;28;20049;-68
2023/11/27 06:26:50;;;;;;;16.00;8.65;;;;;;;-1.78;55.62;94594.91;5089551;28;20066;-67
2023/11/27 06:29:16;;;;;;;6.22;3.13;;;;;;;-1.71;55.41;94581.91;5106532;28;20414;-68
2023/11/27 06:31:41;;;;;;;31.08;15.85;;;;;;;-1.66;55.30;94592.75;5071441;28;20609;-68
2023/11/27 06:34:07;;;;;;;31.60;13.88;;;;;;;-1.63;54.74;94595.16;5106612;28;20032;-68
2023/11/27 06:36:32;;;;;;;30.60;13.05;;;;;;;-1.68;54.52;94601.34;5108808;28;20036;-67
2023/11/27 06:38:57;;;;;;;20.50;9.30;;;;;;;-1.72;55.62;94600.63;5107217;28;20027;-68
2023/11/27 06:41:25;;;;;;;23.83;12.02;;;;;;;-1.68;55.09;94607.25;5107554;28;20040;-68
2023/11/27 06:43:51;;;;;;;16.23;6.45;;;;;;;-1.83;54.66;94607.84;5107915;28;20100;-68
2023/11/27 06:46:17;;;;;;;28.38;9.68;;;;;;;-1.59;54.14;94613.72;5089884;28;20478;-68
2023/11/27 06:48:43;;;;;;;9.63;4.10;;;;;;;-1.66;54.07;94615.66;5088433;28;20035;-68
2023/11/27 06:51:09;;;;;;;18.58;7.03;;;;;;;-1.75;53.85;94612.66;5105148;28;20036;-68
2023/11/27 06:53:35;;;;;;;33.88;13.13;;;;;;;-1.66;54.91;94625.03;5072750;28;20037;-68
2023/11/27 06:56:01;;;;;;;33.80;14.82;;;;;;;-1.45;54.36;94634.41;5090347;28;20016;-68
2023/11/27 06:58:26;;;;;;;18.02;9.68;;;;;;;-1.52;54.98;94644.88;5106981;28;20023;-68
2023/11/27 07:00:51;;;;;;;17.45;10.48;;;;;;;-1.55;54.92;94640.75;5105946;28;20031;-68
2023/11/27 07:03:17;;;;;;;10.82;6.55;;;;;;;-1.64;54.57;94658.94;5106816;28;20057;-68
2023/11/27 07:05:42;;;;;;;13.63;7.43;;;;;;;-1.60;54.50;94645.19;5107645;28;20023;-68
2023/11/27 07:08:08;;;;;;;3.83;2.30;;;;;;;-1.62;52.29;94647.78;5107099;28;20535;-68
2023/11/27 07:10:33;;;;;;;6.38;3.45;;;;;;;-1.54;56.44;94652.56;5110784;28;20028;-68
2023/11/27 07:12:59;;;;;;;7.13;3.50;;;;;;;-1.54;53.91;94660.22;5109502;28;20081;-67
2023/11/27 07:15:28;;;;;;;10.07;5.45;;;;;;;-1.49;54.08;94658.34;5092342;28;20485;-66
2023/11/27 07:17:53;;;;;;;3.63;2.33;;;;;;;-1.48;52.68;94652.34;5110026;28;20043;-68
2023/11/27 07:20:19;;;;;;;3.03;2.00;;;;;;;-1.31;52.67;94651.72;5103830;28;20024;-68
2023/11/27 07:22:48;;;;;;;10.30;6.38;;;;;;;-1.04;51.95;94648.94;5109782;28;20042;-68
2023/11/27 07:25:16;;;;;;;6.25;4.47;;;;;;;-0.83;53.25;94648.06;5108548;28;20050;-68
2023/11/27 07:27:49;;;;;;;6.25;3.20;;;;;;;-0.76;50.65;94648.63;5109726;28;20132;-68
2023/11/27 07:30:14;;;;;;;14.70;7.38;;;;;;;-0.51;50.31;94654.38;5108245;28;20501;-68
2023/11/27 07:32:40;;;;;;;2.10;1.33;;;;;;;0.01;49.26;94645.38;5109927;28;20047;-68
2023/11/27 07:35:07;;;;;;;7.72;4.18;;;;;;;0.40;48.29;94646.13;5109337;28;20031;-68
2023/11/27 07:37:33;;;;;;;6.68;3.55;;;;;;;-0.04;48.39;94628.50;5091754;28;20232;-68
2023/11/27 07:39:58;;;;;;;8.00;4.93;;;;;;;0.16;48.23;94634.47;5106810;28;20076;-68
2023/11/27 07:42:25;;;;;;;3.45;1.85;;;;;;;0.31;46.81;94649.09;5109151;28;20437;-68
2023/11/27 07:44:51;;;;;;;11.13;5.72;;;;;;;0.57;48.11;94641.97;5108982;28;20027;-68
2023/11/27 07:47:16;;;;;;;26.33;15.52;;;;;;;0.39;46.83;94639.38;5107180;28;20541;-68
2023/11/27 07:49:42;;;;;;;7.93;5.10;;;;;;;0.26;48.74;94645.94;5107638;28;20039;-68
2023/11/27 07:52:08;;;;;;;3.85;2.22;;;;;;;-0.12;48.95;94635.69;5090774;28;20036;-68
2023/11/27 07:54:33;;;;;;;6.95;3.60;;;;;;;0.17;47.97;94656.56;5126348;28;20069;-68
2023/11/27 07:56:59;;;;;;;12.35;6.13;;;;;;;0.02;48.60;94662.34;5109885;28;20046;-68
2023/11/27 07:59:26;;;;;;;22.42;11.88;;;;;;;-0.05;47.61;94643.91;5109786;28;20019;-68
2023/11/27 08:01:51;;;;;;;7.63;4.20;;;;;;;-0.01;49.09;94658.19;5111271;28;20035;-68
2023/11/27 08:04:17;;;;;;;7.80;4.60;;;;;;;0.11;49.05;94651.72;5109840;28;20509;-68
2023/11/27 08:06:44;;;;;;;5.63;2.65;;;;;;;0.21;47.79;94652.97;5126861;28;20111;-68
2023/11/27 08:09:10;;;;;;;8.27;4.47;;;;;;;0.21;46.79;94648.69;5109855;28;20451;-68
2023/11/27 08:11:36;;;;;;;2.28;1.50;;;;;;;0.04;46.92;94614.59;5109750;28;20055;-68
2023/11/27 08:14:01;;;;;;;5.32;3.17;;;;;;;0.25;48.05;94685.13;5126920;28;20432;-68
2023/11/27 08:16:27;;;;;;;12.85;6.32;;;;;;;0.38;45.95;94673.47;5144014;27;20508;-68
2023/11/27 08:18:52;;;;;;;9.20;4.15;;;;;;;0.50;45.67;94671.25;5109916;28;20038;-68
2023/11/27 08:21:18;;;;;;;3.35;2.00;;;;;;;0.55;45.82;94666.75;5113670;28;20031;-68
2023/11/27 08:23:44;;;;;;;4.05;2.15;;;;;;;0.61;47.05;94692.03;5114848;28;20032;-68
2023/11/27 08:26:10;;;;;;;8.50;5.07;;;;;;;0.66;45.88;94670.47;5113437;28;20061;-68
2023/11/27 08:28:36;;;;;;;7.82;4.35;;;;;;;0.39;45.86;94667.47;5113551;28;20099;-68
2023/11/27 08:31:01;;;;;;;10.73;6.32;;;;;;;0.55;48.17;94665.03;5147907;27;20019;-68
2023/11/27 08:33:27;;;;;;;6.15;3.20;;;;;;;0.71;46.32;94675.38;5114665;28;20019;-67
2023/11/27 08:35:53;;;;;;;9.75;4.40;;;;;;;0.83;45.70;94653.53;5113445;28;20032;-68
2023/11/27 08:38:19;;;;;;;30.40;14.25;;;;;;;0.93;46.36;94653.94;5113245;28;20504;-68
2023/11/27 08:40:44;;;;;;;22.80;9.73;;;;;;;1.03;48.97;94653.41;5114568;28;20039;-68
2023/11/27 08:43:10;;;;;;;33.55;16.42;;;;;;;1.23;46.50;94655.00;5113414;28;20032;-68
2023/11/27 08:45:35;;;;;;;8.77;4.05;;;;;;;1.19;48.14;94658.59;5113277;28;20023;-68
2023/11/27 08:48:00;;;;;;;4.10;2.50;;;;;;;1.17;44.52;94652.75;5130223;27;20056;-68
2023/11/27 08:50:33;;;;;;;5.50;1.67;;;;;;;0.94;45.12;94666.63;5147597;27;20112;-68
2023/11/27 08:53:00;;;;;;;2.20;1.25;;;;;;;0.95;45.39;94672.56;5113405;28;20553;-68
2023/11/27 08:55:29;;;;;;;5.93;2.88;;;;;;;1.17;46.37;94660.44;5147044;27;20500;-68
2023/11/27 08:58:00;;;;;;;5.57;2.60;;;;;;;1.13;46.59;94669.13;5129808;27;20138;-68
2023/11/27 09:00:29;;;;;;;16.98;7.97;;;;;;;1.29;47.31;94677.72;5129394;27;20027;-68
2023/11/27 09:02:56;;;;;;;18.35;7.70;;;;;;;1.42;46.60;94672.84;5114579;28;20043;-68
2023/11/27 09:05:23;;;;;;;2.50;1.30;;;;;;;1.16;45.41;94640.00;5129715;27;20497;-68
2023/11/27 09:07:53;;;;;;;4.10;1.45;;;;;;;1.16;45.28;94671.53;5114360;28;20032;-68
2023/11/27 09:10:19;;;;;;;4.68;3.05;;;;;;;1.38;48.87;94675.63;5146042;27;20107;-68
2023/11/27 09:12:44;;;;;;;1.90;1.08;;;;;;;1.30;45.15;94679.38;5129938;27;20118;-68
2023/11/27 09:15:10;;;;;;;3.30;1.40;;;;;;;1.21;45.69;94684.94;5113826;28;20451;-68
2023/11/27 09:17:37;;;;;;;6.70;4.45;;;;;;;1.54;46.23;94676.53;5112686;28;20077;-68
2023/11/27 09:20:04;;;;;;;1.83;1.00;;;;;;;1.42;44.79;94661.75;5129226;27;20122;-68
2023/11/27 09:22:29;;;;;;;1.65;1.00;;;;;;;1.33;43.89;94656.19;5114048;28;20036;-68
2023/11/27 09:24:55;;;;;;;2.22;1.20;;;;;;;1.59;45.90;94661.78;5113748;28;20031;-68
2023/11/27 09:27:20;;;;;;;2.83;1.27;;;;;;;1.50;45.82;94636.59;5113496;28;20515;-68
2023/11/27 09:29:46;;;;;;;2.30;1.23;;;;;;;1.10;45.03;94611.25;5113339;28;20028;-68
2023/11/27 09:32:11;;;;;;;1.70;0.93;;;;;;;1.46;46.28;94633.38;5112402;28;20084;-68
2023/11/27 09:34:36;;;;;;;1.30;0.75;;;;;;;1.34;46.46;94642.50;5129397;27;20031;-68
2023/11/27 09:37:02;;;;;;;2.72;1.50;;;;;;;1.28;46.31;94652.19;5113563;28;20036;-68
2023/11/27 09:39:27;;;;;;;1.30;0.90;;;;;;;1.24;43.75;94643.84;5113444;28;20116;-68
2023/11/27 09:41:53;;;;;;;11.25;5.53;;;;;;;1.40;46.60;94633.69;5129220;27;20031;-68
2023/11/27 09:44:18;;;;;;;3.47;2.13;;;;;;;1.21;45.95;94622.72;5129268;27;20039;-68
2023/11/27 09:46:46;;;;;;;3.58;2.55;;;;;;;1.29;46.65;94626.53;5113114;28;20056;-68
2023/11/27 09:49:15;;;;;;;2.13;1.35;;;;;;;1.13;44.48;94615.41;5129078;27;20413;-68
2023/11/27 09:51:41;;;;;;;4.80;1.90;;;;;;;1.17;45.33;94632.28;5145257;27;20408;-68
2023/11/27 09:54:07;;;;;;;3.72;1.30;;;;;;;1.19;46.39;94609.97;5129038;27;20030;-68
2023/11/27 09:56:32;;;;;;;4.30;1.48;;;;;;;1.15;46.38;94634.06;5128879;27;20036;-68
2023/11/27 09:59:00;;;;;;;4.22;1.60;;;;;;;1.33;46.17;94627.22;5146113;27;20038;-68
2023/11/27 10:01:27;;;;;;;1.67;1.00;;;;;;;1.26;45.04;94618.19;5145340;27;20047;-68
2023/11/27 10:03:58;;;;;;;8.05;1.58;;;;;;;1.56;45.44;94605.56;5145612;27;20035;-68
2023/11/27 10:06:28;;;;;;;2.65;1.42;;;;;;;1.64;43.79;94590.63;5127804;27;20039;-68
2023/11/27 10:09:07;;;;;;;3.45;1.58;;;;;;;1.82;44.74;94595.75;5111269;28;20032;-68
2023/11/27 10:11:33;;;;;;;4.60;2.35;;;;;;;1.96;45.04;94585.59;5144154;27;20114;-67
2023/11/27 10:14:05;;;;;;;3.53;2.15;;;;;;;1.92;42.93;94586.66;5128568;27;20115;-68
2023/11/27 10:16:36;;;;;;;3.47;1.90;;;;;;;2.10;44.73;94590.81;5128468;27;20512;-68
2023/11/27 10:19:19;;;;;;;3.95;2.30;;;;;;;2.28;44.33;94588.16;5111404;28;20032;-68
2023/11/27 10:21:45;;;;;;;4.55;2.35;;;;;;;1.99;42.00;94567.50;5111557;28;20028;-68
2023/11/27 10:24:10;;;;;;;4.25;1.98;;;;;;;2.21;41.45;94582.56;5128309;27;20417;-68
2023/11/27 10:26:43;;;;;;;5.22;2.67;;;;;;;2.53;44.89;94587.66;5128320;27;20036;-68
2023/11/27 10:29:23;;;;;;;3.90;2.28;;;;;;;2.72;41.43;94574.66;5111055;28;20479;-68
2023/11/27 10:31:49;;;;;;;2.45;1.27;;;;;;;2.57;40.13;94554.06;5126728;27;20035;-68
2023/11/27 10:34:15;;;;;;;2.83;1.50;;;;;;;2.82;40.85;94553.53;5128441;27;20023;-68
2023/11/27 10:36:40;;;;;;;2.25;1.13;;;;;;;2.93;40.65;94552.91;5145258;27;20031;-68
2023/11/27 10:39:18;;;;;;;1.73;0.98;;;;;;;2.56;40.04;94557.53;5145319;27;20032;-68
2023/11/27 10:41:45;;;;;;;7.75;4.78;;;;;;;2.78;40.68;94540.94;5126000;27;20036;-68
2023/11/27 10:44:10;;;;;;;3.58;1.88;;;;;;;2.66;41.29;94545.84;5110772;28;20031;-69
2023/11/27 10:46:35;;;;;;;3.53;1.85;;;;;;;2.74;40.45;94535.16;5110538;28;20112;-68
2023/11/27 10:49:01;;;;;;;2.08;1.13;;;;;;;2.84;39.04;94553.41;5110698;28;20077;-68
2023/11/27 10:51:31;;;;;;;2.13;1.25;;;;;;;2.75;39.41;94539.38;5127926;27;20054;-68
2023/11/27 10:54:03;;;;;;;2.42;1.50;;;;;;;2.70;40.02;94556.75;5127678;27;20065;-68
2023/11/27 10:56:30;;;;;;;3.67;2.22;;;;;;;2.85;43.71;94530.25;5110766;28;20417;-68
2023/11/27 10:59:05;;;;;;;5.40;2.90;;;;;;;3.11;41.91;94533.88;5127470;27;20035;-68
2023/11/27 11:01:39;;;;;;;7.03;3.47;;;;;;;3.19;41.21;94528.31;5142482;27;20038;-67
2023/11/27 11:04:17;;;;;;;6.75;4.43;;;;;;;3.54;39.90;94545.97;5127445;27;20028;-68
2023/11/27 11:06:46;;;;;;;4.50;2.35;;;;;;;3.51;42.12;94552.09;5141745;27;20066;-68
2023/11/27 11:09:14;;;;;;;3.80;2.05;;;;;;;3.51;41.94;94556.38;5110461;28;20027;-68
2023/11/27 11:11:49;;;;;;;2.58;1.67;;;;;;;3.57;41.98;94549.16;5111806;28;20040;-68
2023/11/27 11:14:19;;;;;;;2.80;1.63;;;;;;;3.32;45.95;94561.81;5127564;27;20027;-68
2023/11/27 11:17:15;;;;;;;1.70;0.90;;;;;;;3.23;39.82;94559.75;5127408;27;20421;-68
2023/11/27 11:19:51;;;;;;;3.17;1.42;;;;;;;3.37;42.51;94554.63;5083904;28;20520;-68
2023/11/27 11:22:38;;;;;;;2.40;1.10;;;;;;;3.56;42.20;94551.81;5110404;28;20553;-68
2023/11/27 11:25:28;;;;;;;1.90;1.08;;;;;;;3.60;39.98;94549.91;5144648;27;20031;-68
2023/11/27 11:28:13;;;;;;;3.40;2.17;;;;;;;3.56;39.53;94533.81;5127211;27;20039;-68
2023/11/27 11:30:39;;;;;;;12.07;5.38;;;;;;;3.70;39.67;94535.56;5125834;27;20035;-68